Time;durP1;ratioP1;P1;durP2;ratioP2;P2;SDS_P1;SDS_P2;PMS_P1;PMS_P2;Temp;Humidity;BMP_temperature;BMP_pressure;BME280_temperature;BME280_humidity;BME280_pressure;Samples;Min_cycle;Max_cycle;Signal;HPM_P1;HPM_P2
2023/06/21 00:04:01;;;;;;;17.00;15.50;;;;;;;22.31;57.35;99699.34;218633;1256;138988;-70
2023/06/21 00:09:05;;;;;;;17.20;15.40;;;;;;;22.31;57.39;99700.20;218577;1259;139448;-68
2023/06/21 00:14:10;;;;;;;16.90;15.30;;;;;;;22.26;57.45;99694.74;218368;1257;139387;-68
2023/06/21 00:19:15;;;;;;;18.40;16.60;;;;;;;22.23;57.61;99691.85;218727;1255;138930;-72
2023/06/21 00:24:20;;;;;;;17.10;15.50;;;;;;;22.22;57.52;99695.08;218711;1257;140133;-69
2023/06/21 00:29:25;;;;;;;17.80;16.00;;;;;;;22.22;57.54;99699.32;218847;1256;139762;-70
2023/06/21 00:34:29;;;;;;;17.70;16.10;;;;;;;22.21;57.51;99697.39;218015;1259;140450;-71
2023/06/21 00:39:34;;;;;;;17.80;16.10;;;;;;;22.18;57.62;99698.73;218859;1255;139345;-70
2023/06/21 00:44:39;;;;;;;17.20;15.60;;;;;;;22.17;57.60;99695.75;218382;1257;139236;-68
2023/06/21 00:49:44;;;;;;;17.40;15.70;;;;;;;22.16;57.67;99700.77;218274;1256;140019;-66
2023/06/21 00:54:48;;;;;;;17.70;15.90;;;;;;;22.16;57.54;99707.50;218211;1256;139434;-67
2023/06/21 00:59:53;;;;;;;17.60;14.60;;;;;;;22.14;57.67;99711.25;218611;1256;139779;-67
2023/06/21 01:04:58;;;;;;;17.80;16.00;;;;;;;22.11;57.64;99714.14;218483;1256;139326;-68
2023/06/21 01:10:19;;;;;;;15.30;13.90;;;;;;;22.08;57.63;99715.14;219444;1256;139299;-67
2023/06/21 01:15:33;;;;;;;16.00;14.60;;;;;;;22.05;57.58;99718.54;218720;1256;139577;-68
2023/06/21 01:20:39;;;;;;;15.40;14.00;;;;;;;22.03;57.48;99725.91;219287;1256;139602;-69
2023/06/21 01:26:02;;;;;;;24.40;16.20;;;;;;;21.99;57.53;99723.62;218098;1257;140267;-67
2023/06/21 01:31:07;;;;;;;17.00;15.40;;;;;;;21.92;57.47;99713.92;218713;1259;139575;-68
2023/06/21 01:36:12;;;;;;;18.30;14.70;;;;;;;21.86;57.58;99711.35;218285;1256;139813;-68
2023/06/21 01:41:16;;;;;;;19.80;15.10;;;;;;;21.80;57.80;99709.52;218601;1255;139334;-68
2023/06/21 01:46:23;;;;;;;17.30;15.40;;;;;;;21.76;57.87;99705.95;220698;1257;139544;-68
2023/06/21 01:51:29;;;;;;;16.90;15.30;;;;;;;21.69;57.93;99705.09;220617;1257;139498;-68
2023/06/21 01:56:37;;;;;;;17.30;15.70;;;;;;;21.67;57.87;99709.55;220278;1256;141216;-65
2023/06/21 02:01:43;;;;;;;16.30;14.70;;;;;;;21.65;57.89;99709.16;220165;1257;139488;-69
2023/06/21 02:06:50;;;;;;;16.40;14.90;;;;;;;21.57;58.04;99707.23;219726;1257;139483;-68
2023/06/21 02:11:56;;;;;;;18.20;16.40;;;;;;;21.48;58.19;99710.38;218041;1257;140116;-65
2023/06/21 02:17:02;;;;;;;17.50;15.90;;;;;;;21.41;58.30;99708.58;219392;1257;139351;-67
2023/06/21 02:22:07;;;;;;;18.10;16.40;;;;;;;21.34;58.43;99704.09;218393;1257;140254;-65
2023/06/21 02:27:11;;;;;;;17.40;16.00;;;;;;;21.21;58.73;99702.14;218320;1256;142361;-74
2023/06/21 02:32:16;;;;;;;18.00;15.90;;;;;;;21.06;58.99;99694.59;218992;1257;139268;-64
2023/06/21 02:37:23;;;;;;;16.80;15.30;;;;;;;20.96;59.35;99692.94;218192;1257;139944;-66
2023/06/21 02:42:28;;;;;;;18.90;15.00;;;;;;;20.95;59.61;99696.84;218602;1257;140515;-65
2023/06/21 02:47:34;;;;;;;18.60;16.80;;;;;;;20.97;59.64;99700.34;218036;1256;139137;-69
2023/06/21 02:52:39;;;;;;;16.60;15.00;;;;;;;20.99;59.70;99698.13;218886;1257;236321;-68
2023/06/21 02:57:44;;;;;;;18.30;16.70;;;;;;;21.02;59.85;99700.95;218295;1257;140391;-67
2023/06/21 03:02:50;;;;;;;18.00;16.40;;;;;;;21.01;59.89;99701.12;218248;1257;140428;-67
2023/06/21 03:07:56;;;;;;;19.30;17.40;;;;;;;21.01;60.02;99704.52;217918;1257;151698;-69
2023/06/21 03:13:01;;;;;;;29.50;17.60;;;;;;;21.01;60.05;99705.50;217922;1257;140005;-67
2023/06/21 03:18:05;;;;;;;20.80;18.10;;;;;;;21.04;60.19;99707.81;217882;1259;140005;-67
2023/06/21 03:23:11;;;;;;;19.50;17.70;;;;;;;21.07;60.33;99709.06;218384;1259;139803;-67
2023/06/21 03:28:19;;;;;;;20.60;18.20;;;;;;;21.10;60.64;99707.80;218662;1257;221230;-67
2023/06/21 03:33:24;;;;;;;18.00;16.30;;;;;;;21.17;60.71;99716.56;219482;1257;140382;-68
2023/06/21 03:38:30;;;;;;;;;;;;;;;21.25;60.70;99724.58;218825;1259;139693;-71
2023/06/21 03:43:35;;;;;;;18.60;16.90;;;;;;;21.28;60.75;99727.33;218982;1259;126467;-69
2023/06/21 03:48:40;;;;;;;20.40;18.30;;;;;;;21.35;60.66;99729.34;219305;1257;141146;-70
2023/06/21 03:53:45;;;;;;;28.40;19.80;;;;;;;21.39;60.64;99736.04;219992;1256;140013;-71
2023/06/21 03:58:50;;;;;;;19.40;17.60;;;;;;;21.45;60.96;99747.75;220378;1257;140047;-70
2023/06/21 04:03:56;;;;;;;20.90;18.90;;;;;;;21.50;60.81;99758.93;219265;1259;140854;-69
2023/06/21 04:09:01;;;;;;;20.50;18.60;;;;;;;21.56;61.05;99758.63;219623;1257;141628;-69
2023/06/21 04:14:06;;;;;;;17.50;15.90;;;;;;;21.60;61.14;99747.15;219129;1255;140959;-70
2023/06/21 04:19:12;;;;;;;20.70;18.80;;;;;;;21.61;61.36;99740.36;218690;1257;140173;-70
2023/06/21 04:24:17;;;;;;;20.20;18.40;;;;;;;21.68;61.61;99737.25;218919;1257;140145;-72
2023/06/21 04:29:24;;;;;;;20.40;18.40;;;;;;;21.68;62.22;99725.96;218853;1259;141760;-70
2023/06/21 04:34:29;;;;;;;19.10;17.40;;;;;;;21.72;63.11;99724.38;218632;1257;140232;-69
2023/06/21 04:39:35;;;;;;;18.20;16.70;;;;;;;21.65;63.23;99720.67;218702;1259;140161;-69
2023/06/21 04:44:40;;;;;;;21.00;19.10;;;;;;;21.55;63.75;99726.33;218872;1259;141488;-67
2023/06/21 04:49:45;;;;;;;20.90;19.10;;;;;;;21.43;63.50;99738.41;218950;1259;140640;-66
2023/06/21 04:54:52;;;;;;;22.40;20.30;;;;;;;21.41;64.12;99750.56;217802;1257;139801;-67
2023/06/21 04:59:58;;;;;;;22.60;20.60;;;;;;;21.49;64.47;99758.95;217883;1256;141220;-67
2023/06/21 05:05:03;;;;;;;23.40;21.30;;;;;;;21.52;64.55;99763.16;218579;1259;142198;-70
2023/06/21 05:10:14;;;;;;;24.70;22.10;;;;;;;21.54;65.04;99765.73;218190;1257;139898;-70
2023/06/21 05:15:20;;;;;;;;;;;;;;;21.58;65.24;99763.69;218204;1254;139937;-69
2023/06/21 05:20:27;;;;;;;23.50;21.30;;;;;;;21.54;65.36;99765.98;218964;1256;126859;-69
2023/06/21 05:25:44;;;;;;;23.60;21.50;;;;;;;21.54;65.98;99770.29;218160;1257;139481;-67
2023/06/21 05:30:51;;;;;;;29.30;22.50;;;;;;;21.58;66.17;99770.58;219170;1257;139890;-67
2023/06/21 05:35:58;;;;;;;24.10;21.80;;;;;;;21.62;66.23;99767.94;220038;1257;142034;-67
2023/06/21 05:41:08;;;;;;;24.70;22.30;;;;;;;21.63;66.49;99756.09;218859;1259;139876;-67
2023/06/21 05:46:14;;;;;;;24.90;22.40;;;;;;;21.59;66.70;99753.52;219522;1256;140528;-68
2023/06/21 05:51:20;;;;;;;28.50;23.40;;;;;;;21.67;67.10;99758.83;218683;1256;139816;-67
2023/06/21 05:56:27;;;;;;;25.50;23.00;;;;;;;21.77;67.13;99766.86;219829;1256;223383;-70
2023/06/21 06:01:31;;;;;;;24.20;21.50;;;;;;;21.90;66.94;99771.18;219162;1256;140425;-70
2023/06/21 06:06:40;;;;;;;22.40;20.40;;;;;;;22.02;66.71;99772.68;219449;1257;141120;-72
2023/06/21 06:11:45;;;;;;;23.50;21.20;;;;;;;22.15;66.52;99776.42;220356;1257;141160;-72
2023/06/21 06:16:50;;;;;;;24.70;22.10;;;;;;;22.31;66.25;99772.88;219184;1257;141425;-71
2023/06/21 06:21:56;;;;;;;26.20;23.50;;;;;;;22.54;66.08;99776.17;218156;1257;140140;-68
2023/06/21 06:27:00;;;;;;;25.50;22.90;;;;;;;22.73;65.33;99779.77;219134;1257;140157;-69
2023/06/21 06:32:04;;;;;;;23.50;20.80;;;;;;;22.90;65.03;99773.31;219769;1257;140107;-69
2023/06/21 06:37:11;;;;;;;32.60;21.30;;;;;;;23.10;64.87;99767.66;218654;1256;140577;-70
2023/06/21 06:42:22;;;;;;;28.00;21.70;;;;;;;23.29;64.58;99769.16;218203;1257;139913;-70
2023/06/21 06:47:28;;;;;;;24.90;22.30;;;;;;;23.35;64.18;99766.81;218858;1258;140407;-71
2023/06/21 06:52:32;;;;;;;23.60;21.60;;;;;;;23.43;63.78;99762.66;218093;1259;139967;-68
2023/06/21 06:57:36;;;;;;;24.60;19.50;;;;;;;23.65;63.76;99755.84;218216;1259;139984;-67
2023/06/21 07:02:49;;;;;;;21.60;19.30;;;;;;;23.98;63.11;99743.97;217960;1259;142279;-67
2023/06/21 07:07:55;;;;;;;19.70;18.00;;;;;;;24.39;62.21;99748.83;217775;1259;140427;-68
2023/06/21 07:13:02;;;;;;;22.00;19.50;;;;;;;24.67;61.04;99751.25;218571;1259;142394;-68
2023/06/21 07:18:06;;;;;;;22.00;19.50;;;;;;;24.96;60.86;99747.29;218541;1257;139378;-68
2023/06/21 07:23:11;;;;;;;23.70;19.10;;;;;;;25.52;60.59;99741.08;218822;1256;139290;-67
2023/06/21 07:28:18;;;;;;;22.60;20.20;;;;;;;26.14;59.44;99739.95;218205;1259;139806;-70
2023/06/21 07:33:23;;;;;;;20.70;18.60;;;;;;;26.48;58.46;99745.44;218839;1257;139244;-68
2023/06/21 07:38:27;;;;;;;20.60;18.70;;;;;;;26.64;58.31;99748.38;218462;1257;139261;-72
2023/06/21 07:43:30;;;;;;;21.30;19.30;;;;;;;26.66;57.37;99750.84;219874;1255;139892;-69
2023/06/21 07:48:34;;;;;;;21.50;19.60;;;;;;;26.53;57.17;99752.15;219347;1258;140337;-70
2023/06/21 07:53:39;;;;;;;22.00;20.00;;;;;;;26.41;56.81;99750.95;220644;1257;139776;-69
2023/06/21 07:58:43;;;;;;;21.80;19.70;;;;;;;26.28;57.08;99750.92;219648;1259;140945;-70
2023/06/21 08:03:48;;;;;;;21.70;19.80;;;;;;;26.36;57.44;99748.92;220453;1259;140454;-68
2023/06/21 08:08:52;;;;;;;21.80;19.80;;;;;;;26.32;57.08;99748.80;220531;1255;139512;-68
2023/06/21 08:13:57;;;;;;;24.10;19.20;;;;;;;26.24;57.00;99748.66;218244;1256;139670;-67
2023/06/21 08:19:03;;;;;;;22.20;20.20;;;;;;;26.14;57.47;99750.17;219136;1257;139816;-67
2023/06/21 08:24:08;;;;;;;20.50;18.50;;;;;;;26.09;57.73;99750.70;217926;1257;140069;-67
2023/06/21 08:29:13;;;;;;;24.10;21.60;;;;;;;25.97;57.77;99753.82;219681;1257;140011;-67
2023/06/21 08:34:26;;;;;;;24.90;22.40;;;;;;;25.85;58.03;99757.61;219490;1257;140567;-69
2023/06/21 08:39:33;;;;;;;22.30;20.10;;;;;;;25.89;58.81;99756.83;218572;1257;140951;-67
2023/06/21 08:44:38;;;;;;;22.80;20.70;;;;;;;26.03;59.08;99753.86;217768;1257;1078284;-69
2023/06/21 08:49:47;;;;;;;25.10;22.40;;;;;;;26.13;59.17;99753.36;219811;1259;140259;-69
2023/06/21 08:55:00;;;;;;;25.70;23.00;;;;;;;26.23;59.29;99750.11;218548;1255;139990;-65
2023/06/21 09:00:08;;;;;;;24.80;22.50;;;;;;;26.28;59.17;99743.56;218106;1256;139667;-66
2023/06/21 09:05:21;;;;;;;25.60;23.10;;;;;;;26.40;59.35;99741.89;219744;1256;139405;-65
2023/06/21 09:10:29;;;;;;;24.70;22.00;;;;;;;26.59;59.31;99742.60;218222;1259;139912;-70
2023/06/21 09:15:34;;;;;;;22.00;19.70;;;;;;;26.79;59.37;99744.98;218065;1257;140724;-69
2023/06/21 09:20:41;;;;;;;25.70;20.40;;;;;;;27.02;59.19;99744.23;218631;1259;139182;-68
2023/06/21 09:25:49;;;;;;;22.50;20.20;;;;;;;27.23;58.93;99738.89;218985;1258;139475;-70
2023/06/21 09:30:54;;;;;;;23.70;21.30;;;;;;;27.32;58.57;99742.70;219389;1257;140064;-74
2023/06/21 09:36:00;;;;;;;22.40;20.10;;;;;;;27.59;59.04;99749.98;218625;1257;139595;-71
2023/06/21 09:41:10;;;;;;;23.40;19.60;;;;;;;27.71;58.63;99752.30;218670;1259;140340;-66
2023/06/21 09:46:16;;;;;;;24.30;19.50;;;;;;;27.61;58.60;99755.38;219805;1257;139702;-65
2023/06/21 09:51:23;;;;;;;23.20;20.90;;;;;;;27.53;58.87;99758.25;219716;1257;139844;-66
2023/06/21 09:56:33;;;;;;;21.30;19.50;;;;;;;27.57;58.85;99773.33;218271;1256;139297;-71
2023/06/21 10:01:41;;;;;;;23.50;21.10;;;;;;;27.58;58.65;99775.67;220292;1257;139311;-68
2023/06/21 10:06:54;;;;;;;22.90;20.50;;;;;;;27.60;58.64;99778.58;220110;1256;140236;-67
2023/06/21 10:12:02;;;;;;;23.00;20.60;;;;;;;27.64;58.65;99774.86;219005;1257;138989;-66
2023/06/21 10:17:08;;;;;;;22.40;19.90;;;;;;;27.67;59.05;99776.44;219042;1256;139583;-68
2023/06/21 10:22:24;;;;;;;22.10;20.10;;;;;;;27.72;59.68;99778.71;219802;1254;140772;-67
2023/06/21 10:27:30;;;;;;;22.40;19.10;;;;;;;27.71;59.48;99783.85;218300;1260;139491;-67
2023/06/21 10:32:38;;;;;;;19.80;17.90;;;;;;;27.66;59.13;99790.18;217853;1259;139312;-66
2023/06/21 10:38:05;;;;;;;20.40;17.60;;;;;;;27.57;58.75;99797.46;219181;1257;139541;-67
2023/06/21 10:43:13;;;;;;;21.00;17.00;;;;;;;27.49;58.47;99800.84;218721;1257;139550;-68
2023/06/21 10:48:20;;;;;;;;;;;;;;;27.40;58.28;99807.93;217936;1257;140284;-67
2023/06/21 10:53:25;;;;;;;;;;;;;;;27.29;57.97;99808.45;218857;1256;125564;-66
2023/06/21 10:58:29;;;;;;;19.90;17.30;;;;;;;27.20;58.07;99813.24;219109;1259;126331;-66
2023/06/21 11:03:35;;;;;;;19.10;17.10;;;;;;;27.12;57.98;99811.23;218398;1259;139167;-66
2023/06/21 11:08:40;;;;;;;21.20;19.00;;;;;;;27.06;57.64;99807.88;217953;1260;139211;-67
2023/06/21 11:13:46;;;;;;;23.40;18.60;;;;;;;26.99;57.64;99809.38;219159;1256;139558;-69
2023/06/21 11:18:55;;;;;;;21.30;19.30;;;;;;;26.90;57.57;99805.23;218644;1259;139028;-70
2023/06/21 11:24:06;;;;;;;28.60;19.90;;;;;;;26.85;58.32;99805.65;217784;1257;140089;-65
2023/06/21 11:29:16;;;;;;;20.80;18.60;;;;;;;26.88;58.53;99803.54;220513;1256;139696;-68
2023/06/21 11:34:31;;;;;;;22.50;20.40;;;;;;;26.89;58.47;99801.77;219964;1256;140576;-68
2023/06/21 11:39:38;;;;;;;24.90;20.60;;;;;;;26.98;58.79;99807.07;219846;1256;141027;-70
2023/06/21 11:44:43;;;;;;;25.30;22.10;;;;;;;27.08;58.97;99807.58;220560;1256;141054;-69
2023/06/21 11:49:53;;;;;;;29.00;21.80;;;;;;;27.15;58.85;99806.23;219269;1254;140518;-67
2023/06/21 11:54:59;;;;;;;23.80;21.10;;;;;;;27.19;58.56;99812.37;220657;1256;140162;-68
2023/06/21 12:00:05;;;;;;;22.20;20.10;;;;;;;27.22;58.56;99818.30;220681;1255;139385;-68
2023/06/21 12:05:10;;;;;;;22.10;20.00;;;;;;;27.28;58.47;99817.38;218788;1257;139336;-67
2023/06/21 12:10:17;;;;;;;23.80;21.50;;;;;;;27.35;58.42;99813.77;220569;1256;140084;-67
2023/06/21 12:15:21;;;;;;;24.20;21.30;;;;;;;27.37;58.34;99813.77;218687;1256;140335;-67
2023/06/21 12:20:25;;;;;;;24.60;22.20;;;;;;;27.37;58.26;99823.02;218211;1257;151137;-65
2023/06/21 12:25:44;;;;;;;25.00;22.00;;;;;;;27.49;58.30;99832.77;218917;1257;140411;-65
2023/06/21 12:30:53;;;;;;;24.80;22.40;;;;;;;27.63;58.32;99836.25;218007;1259;140451;-66
2023/06/21 12:36:25;;;;;;;25.10;22.40;;;;;;;27.73;58.08;99839.31;219614;1256;139878;-67
2023/06/21 12:41:34;;;;;;;26.20;23.90;;;;;;;27.75;57.89;99834.19;218872;1256;139708;-66
2023/06/21 12:46:40;;;;;;;25.90;23.20;;;;;;;27.72;57.91;99828.79;218470;1255;139140;-68
2023/06/21 12:51:46;;;;;;;26.10;23.70;;;;;;;27.57;57.85;99837.23;218069;1256;139317;-65
2023/06/21 12:56:52;;;;;;;28.20;24.00;;;;;;;27.39;58.16;99836.92;218385;1255;139507;-67
2023/06/21 13:01:57;;;;;;;25.40;22.90;;;;;;;27.28;58.42;99835.92;218097;1257;139209;-65
2023/06/21 13:07:05;;;;;;;25.90;23.70;;;;;;;27.08;58.44;99827.73;217808;1257;139949;-67
2023/06/21 13:12:11;;;;;;;26.70;24.30;;;;;;;26.87;58.89;99826.38;217841;1256;140455;-67
2023/06/21 13:17:16;;;;;;;28.60;24.70;;;;;;;26.73;59.60;99824.61;217759;1257;139450;-65
2023/06/21 13:22:21;;;;;;;28.30;25.30;;;;;;;26.64;60.00;99821.64;218934;1257;139124;-66
2023/06/21 13:27:27;;;;;;;26.50;23.80;;;;;;;26.57;60.12;99822.20;218912;1255;139373;-71
2023/06/21 13:32:38;;;;;;;24.90;22.60;;;;;;;26.54;60.60;99818.52;218249;1257;140549;-67
2023/06/21 13:37:46;;;;;;;27.10;24.30;;;;;;;26.45;61.14;99811.64;219750;1256;140589;-69
2023/06/21 13:42:58;;;;;;;26.40;23.60;;;;;;;26.29;61.38;99805.38;219810;1255;140056;-71
2023/06/21 13:48:05;;;;;;;26.10;23.80;;;;;;;26.14;62.05;99813.27;220032;1254;223656;-69
2023/06/21 13:53:12;;;;;;;26.00;23.30;;;;;;;26.19;62.58;99823.05;220668;1256;140821;-66
2023/06/21 13:58:25;;;;;;;25.60;23.30;;;;;;;26.28;62.83;99836.55;220820;1256;140051;-66
2023/06/21 14:03:33;;;;;;;25.90;23.60;;;;;;;26.39;62.94;99834.31;219743;1257;140623;-64
2023/06/21 14:08:46;;;;;;;25.20;22.70;;;;;;;26.41;62.80;99835.10;218871;1256;141520;-69
2023/06/21 14:13:53;;;;;;;26.50;23.60;;;;;;;26.49;62.95;99831.55;217848;1256;140981;-70
2023/06/21 14:19:02;;;;;;;28.20;25.40;;;;;;;26.66;62.79;99829.06;218689;1254;141014;-69
2023/06/21 14:24:10;;;;;;;20.30;18.60;;;;;;;27.10;62.90;99825.92;218039;1256;140672;-70
2023/06/21 14:29:17;;;;;;;24.80;22.30;;;;;;;27.49;62.21;99806.39;218771;1256;140633;-72
2023/06/21 14:34:24;;;;;;;24.70;22.60;;;;;;;27.60;61.84;99805.20;219202;1254;245995;-72
2023/06/21 14:39:33;;;;;;;21.90;19.80;;;;;;;27.63;61.50;99799.41;217814;1256;140836;-69
2023/06/21 14:44:47;;;;;;;20.70;18.70;;;;;;;27.64;61.07;99789.64;217972;1257;140398;-66
2023/06/21 14:50:03;;;;;;;21.60;19.50;;;;;;;27.58;60.98;99788.29;218280;1255;140781;-69
2023/06/21 14:55:16;;;;;;;24.20;22.00;;;;;;;27.52;60.75;99781.69;217773;1259;140206;-65
2023/06/21 15:00:26;;;;;;;26.20;23.60;;;;;;;27.49;60.93;99768.73;217892;1256;140809;-64
2023/06/21 15:05:38;;;;;;;25.20;22.80;;;;;;;27.50;60.81;99771.48;218693;1254;139992;-74
2023/06/21 15:10:52;;;;;;;26.40;24.00;;;;;;;27.48;61.19;99771.48;219482;1256;140780;-68
2023/06/21 15:16:06;;;;;;;26.00;23.50;;;;;;;27.43;61.41;99763.99;218329;1256;140343;-67
2023/06/21 15:21:12;;;;;;;25.20;22.80;;;;;;;27.47;61.63;99762.84;218535;1256;141339;-67
2023/06/21 15:26:21;;;;;;;25.30;22.80;;;;;;;27.39;61.28;99754.55;217795;1259;140334;-68
2023/06/21 15:31:29;;;;;;;23.80;21.70;;;;;;;27.36;61.22;99764.00;219114;1255;141483;-69
2023/06/21 15:36:39;;;;;;;24.80;22.40;;;;;;;27.27;61.23;99772.16;219239;1256;140119;-68
2023/06/21 15:41:49;;;;;;;24.10;21.80;;;;;;;27.09;61.32;99785.48;219194;1255;140235;-68
2023/06/21 15:46:56;;;;;;;22.60;20.10;;;;;;;27.17;61.49;99801.20;218818;1255;140200;-68
2023/06/21 15:52:07;;;;;;;25.20;22.80;;;;;;;27.36;61.14;99802.32;218301;1259;140659;-68
2023/06/21 15:57:13;;;;;;;23.30;21.00;;;;;;;27.31;61.03;99815.08;220645;1256;140911;-69
2023/06/21 16:02:20;;;;;;;26.00;22.10;;;;;;;27.30;61.00;99804.31;219834;1256;140429;-66
2023/06/21 16:07:27;;;;;;;24.80;22.30;;;;;;;27.26;61.25;99803.73;219158;1257;140088;-70
2023/06/21 16:12:41;;;;;;;24.80;22.20;;;;;;;27.25;61.37;99803.15;218090;1256;140363;-70
2023/06/21 16:17:56;;;;;;;;;;;;;;;27.19;61.48;99809.86;218326;1256;140360;-71
2023/06/21 16:23:07;;;;;;;26.40;23.00;;;;;;;27.05;61.72;99811.39;219553;1256;126136;-69
2023/06/21 16:28:19;;;;;;;23.70;21.20;;;;;;;26.92;61.82;99806.81;219601;1255;141167;-70
2023/06/21 16:33:31;;;;;;;;;;;;;;;26.79;61.92;99796.91;218142;1257;140348;-70
2023/06/21 16:38:42;;;;;;;20.30;18.30;;;;;;;26.61;62.19;99782.42;219241;1255;126018;-70
2023/06/21 16:43:50;;;;;;;18.10;16.50;;;;;;;26.45;62.10;99784.45;218112;1256;141442;-66
2023/06/21 16:49:04;;;;;;;18.70;16.90;;;;;;;26.38;62.57;99781.63;217865;1257;140184;-68
2023/06/21 16:54:21;;;;;;;;;;;;;;;26.40;63.24;99781.70;219065;1257;140627;-69
2023/06/21 16:59:32;;;;;;;20.00;18.00;;;;;;;26.40;63.52;99779.00;218345;1257;126450;-71
2023/06/21 17:04:46;;;;;;;19.50;17.70;;;;;;;26.41;63.90;99772.08;217993;1256;142364;-71
2023/06/21 17:09:57;;;;;;;19.90;18.00;;;;;;;26.39;64.01;99770.13;218138;1257;140670;-70
2023/06/21 17:15:12;;;;;;;20.60;18.60;;;;;;;26.36;64.04;99774.48;218700;1256;139901;-69
2023/06/21 17:20:19;;;;;;;23.40;20.80;;;;;;;26.30;64.50;99785.66;218150;1257;139980;-67
2023/06/21 17:25:37;;;;;;;30.00;26.00;;;;;;;26.21;64.84;99799.16;217950;1257;140026;-70
2023/06/21 17:30:45;;;;;;;27.70;23.90;;;;;;;26.09;65.17;99806.08;218536;1256;140530;-66
2023/06/21 17:36:00;;;;;;;27.30;23.30;;;;;;;25.98;65.51;99815.35;218658;1256;141221;-67
2023/06/21 17:41:18;;;;;;;25.60;22.70;;;;;;;25.86;66.05;99823.20;220670;1256;151927;-67
2023/06/21 17:46:31;;;;;;;26.70;22.60;;;;;;;25.78;66.39;99817.98;220099;1256;141985;-68
2023/06/21 17:51:42;;;;;;;23.40;21.00;;;;;;;25.74;66.59;99807.13;218771;1257;142459;-76
2023/06/21 17:56:52;;;;;;;22.50;20.10;;;;;;;25.72;67.07;99803.23;219014;1256;140282;-72
2023/06/21 18:01:59;;;;;;;24.20;19.60;;;;;;;25.57;66.77;99786.02;219163;1257;226487;-70
2023/06/21 18:07:04;;;;;;;24.60;22.40;;;;;;;25.52;67.52;99778.73;218782;1255;233642;-65
2023/06/21 18:12:18;;;;;;;25.50;23.00;;;;;;;25.53;67.83;99780.17;218787;1255;139937;-68
2023/06/21 18:17:39;;;;;;;28.90;26.10;;;;;;;25.54;68.17;99783.27;219177;1256;140398;-67
2023/06/21 18:22:50;;;;;;;26.00;23.20;;;;;;;25.55;68.85;99780.42;218392;1259;140370;-65
2023/06/21 18:28:02;;;;;;;25.50;22.90;;;;;;;25.53;69.19;99777.15;218692;1256;141462;-65
2023/06/21 18:33:11;;;;;;;26.60;24.10;;;;;;;25.50;69.28;99768.83;218359;1257;139876;-63
2023/06/21 18:38:19;;;;;;;29.10;23.70;;;;;;;25.44;69.62;99757.70;218611;1256;140983;-65
2023/06/21 18:43:26;;;;;;;30.90;25.60;;;;;;;25.37;69.63;99761.41;218186;1259;140081;-64
2023/06/21 18:48:36;;;;;;;26.00;23.50;;;;;;;25.28;69.80;99757.09;218050;1257;140112;-65
2023/06/21 18:53:43;;;;;;;25.00;22.60;;;;;;;25.19;70.06;99754.98;217888;1256;140440;-65
2023/06/21 18:58:54;;;;;;;30.40;26.80;;;;;;;25.10;70.43;99757.83;217899;1257;140057;-64
2023/06/21 19:04:01;;;;;;;28.60;25.90;;;;;;;24.98;70.53;99766.92;219326;1255;140042;-66
2023/06/21 19:09:08;;;;;;;29.30;26.50;;;;;;;24.85;70.80;99777.36;218707;1257;140095;-73
2023/06/21 19:14:14;;;;;;;28.20;25.30;;;;;;;24.72;71.13;99788.08;218413;1257;141537;-68
2023/06/21 19:19:20;;;;;;;26.90;24.30;;;;;;;24.62;71.30;99795.75;218099;1257;142872;-75
2023/06/21 19:24:25;;;;;;;29.90;26.80;;;;;;;24.45;71.56;99790.19;218193;1256;140485;-74
2023/06/21 19:29:30;;;;;;;;;;;;;;;24.23;71.92;99796.89;219157;1256;140424;-72
2023/06/21 19:34:37;;;;;;;31.10;27.00;;;;;;;24.07;71.94;99799.14;219804;1255;126297;-71
2023/06/21 19:39:46;;;;;;;27.10;24.30;;;;;;;23.98;72.31;99801.48;219472;1256;140927;-66
2023/06/21 19:44:54;;;;;;;31.00;28.00;;;;;;;23.90;72.31;99805.13;219014;1257;141086;-68
2023/06/21 19:50:03;;;;;;;29.80;26.90;;;;;;;23.81;72.60;99806.96;219370;1256;141445;-69
2023/06/21 19:55:21;;;;;;;30.10;27.00;;;;;;;23.72;72.93;99807.48;220419;1256;139625;-70
2023/06/21 20:00:27;;;;;;;31.70;28.60;;;;;;;23.64;72.86;99816.56;217660;1256;140321;-67
2023/06/21 20:05:34;;;;;;;28.90;26.00;;;;;;;23.55;73.13;99827.28;219284;1257;140423;-68
2023/06/21 20:10:47;;;;;;;28.70;24.50;;;;;;;23.42;73.47;99834.66;218278;1255;140591;-70
2023/06/21 20:16:13;;;;;;;30.80;27.90;;;;;;;23.20;73.71;99844.59;219100;1257;140954;-66
2023/06/21 20:21:30;;;;;;;31.50;28.30;;;;;;;22.96;74.27;99847.23;218604;1255;140255;-68
2023/06/21 20:26:44;;;;;;;30.80;27.80;;;;;;;22.90;74.83;99849.98;219116;1257;140542;-74
2023/06/21 20:31:52;;;;;;;32.80;27.90;;;;;;;22.87;74.83;99859.94;217956;1257;141315;-72
2023/06/21 20:37:05;;;;;;;29.40;26.50;;;;;;;22.83;75.00;99868.04;218262;1256;141883;-69
2023/06/21 20:42:28;;;;;;;31.30;28.20;;;;;;;22.74;75.23;99865.74;216887;1259;1020466;-71
2023/06/21 20:47:37;;;;;;;30.90;27.70;;;;;;;22.66;75.67;99851.34;217526;1257;152408;-72
2023/06/21 20:52:46;;;;;;;31.60;28.20;;;;;;;22.58;75.81;99853.84;217480;1256;140498;-69
2023/06/21 20:57:56;;;;;;;32.50;29.10;;;;;;;22.52;76.01;99845.63;217965;1257;139852;-70
2023/06/21 21:03:01;;;;;;;30.90;28.20;;;;;;;22.51;76.54;99834.71;218087;1259;140951;-64
2023/06/21 21:08:10;;;;;;;29.80;26.90;;;;;;;22.53;76.88;99838.14;217806;1256;140198;-65
2023/06/21 21:13:15;;;;;;;26.40;23.80;;;;;;;22.54;76.65;99849.05;218209;1257;140062;-65
2023/06/21 21:18:20;;;;;;;27.70;23.60;;;;;;;22.50;76.30;99854.52;218936;1259;140369;-67
2023/06/21 21:23:30;;;;;;;27.20;24.70;;;;;;;22.49;76.27;99866.73;220310;1257;139985;-68
2023/06/21 21:28:35;;;;;;;26.10;23.40;;;;;;;22.48;76.20;99870.65;220416;1256;140667;-65
2023/06/21 21:33:40;;;;;;;25.10;21.60;;;;;;;22.48;76.08;99880.54;220616;1257;140629;-67
2023/06/21 21:38:45;;;;;;;24.10;21.70;;;;;;;22.38;75.73;99894.96;220406;1254;140686;-66
2023/06/21 21:43:49;;;;;;;26.70;24.00;;;;;;;22.28;75.94;99889.79;220502;1256;141182;-67
2023/06/21 21:48:53;;;;;;;25.80;23.20;;;;;;;22.18;76.21;99896.75;220346;1257;140660;-66
2023/06/21 21:57:53;;;;;;;24.50;21.80;;;;;;;22.13;76.18;99914.94;216004;1298;636534;-65
2023/06/21 22:02:57;;;;;;;23.20;20.90;;;;;;;22.08;76.36;99929.12;218862;1269;140672;-75
2023/06/21 22:08:02;;;;;;;22.30;19.80;;;;;;;22.10;76.30;99929.95;217982;1267;544884;-67
2023/06/21 22:13:09;;;;;;;21.20;19.00;;;;;;;22.12;76.15;99937.18;218231;1266;140406;-68
2023/06/21 22:18:14;;;;;;;18.20;16.30;;;;;;;22.06;75.82;99936.48;217496;1270;139350;-67
2023/06/21 22:23:19;;;;;;;20.10;17.90;;;;;;;22.06;75.82;99935.30;217767;1266;139542;-66
2023/06/21 22:28:29;;;;;;;18.10;16.30;;;;;;;22.06;75.60;99934.54;217058;1266;139445;-67
2023/06/21 22:33:36;;;;;;;17.80;16.00;;;;;;;22.02;75.33;99940.31;216791;1266;139684;-69
2023/06/21 22:38:45;;;;;;;18.90;16.40;;;;;;;21.94;75.20;99936.85;216176;1271;139647;-70
2023/06/21 22:43:57;;;;;;;17.60;15.90;;;;;;;21.82;75.19;99938.02;216870;1266;140995;-71
2023/06/21 22:49:07;;;;;;;21.50;16.30;;;;;;;21.72;75.24;99932.65;216795;1266;140063;-70
2023/06/21 22:54:21;;;;;;;18.00;16.10;;;;;;;21.60;75.30;99936.71;217777;1271;140640;-67
2023/06/21 22:59:25;;;;;;;17.50;15.70;;;;;;;21.53;75.53;99949.98;216636;1269;140143;-71
2023/06/21 23:04:29;;;;;;;19.90;17.90;;;;;;;21.48;75.58;99954.18;217907;1267;140394;-66
2023/06/21 23:09:33;;;;;;;18.30;16.00;;;;;;;21.44;75.74;99949.86;216946;1271;140689;-65
2023/06/21 23:14:37;;;;;;;18.10;16.40;;;;;;;21.36;75.68;99952.71;217256;1267;139685;-65